Time;durP1;ratioP1;P1;durP2;ratioP2;P2;SDS_P1;SDS_P2;PMS_P1;PMS_P2;Temp;Humidity;BMP_temperature;BMP_pressure;BME280_temperature;BME280_humidity;BME280_pressure;Samples;Min_cycle;Max_cycle;Signal;HPM_P1;HPM_P2
2022/05/19 00:01:11;;;;;;;;;;;;;;;8.99;68.06;96216.81;5151833;27;1031;-47
2022/05/19 00:03:38;;;;;;;;;;;;;;;8.94;67.62;96218.16;5151562;27;964;-47
2022/05/19 00:06:05;;;;;;;;;;;;;;;8.70;67.72;96224.47;5151651;27;1172;-47
2022/05/19 00:08:32;;;;;;;;;;;;;;;8.08;69.46;96222.28;5151397;27;1016;-47
2022/05/19 00:10:59;;;;;;;;;;;;;;;7.96;70.52;96221.44;5151411;27;1035;-47
2022/05/19 00:13:26;;;;;;;;;;;;;;;8.17;70.55;96224.22;5149640;27;1913;-47
2022/05/19 00:15:53;;;;;;;;;;;;;;;8.29;70.16;96225.94;5151268;27;1087;-47
2022/05/19 00:18:19;;;;;;;;;;;;;;;8.27;69.96;96221.69;5150998;27;1059;-47
2022/05/19 00:20:46;;;;;;;;;;;;;;;8.15;70.11;96223.50;5151322;27;1015;-47
2022/05/19 00:23:13;;;;;;;;;;;;;;;7.79;71.01;96226.22;5150928;27;1044;-47
2022/05/19 00:25:39;;;;;;;;;;;;;;;7.77;70.55;96230.81;5136389;27;1083;-47
2022/05/19 00:28:06;;;;;;;;;;;;;;;7.78;70.78;96227.22;5137269;27;1048;-47
2022/05/19 00:30:32;;;;;;;;;;;;;;;7.92;71.15;96230.63;5137245;27;1126;-47
2022/05/19 00:32:59;;;;;;;;;;;;;;;8.25;70.34;96229.78;5137202;27;1913;-47
2022/05/19 00:35:25;;;;;;;;;;;;;;;8.44;70.11;96231.06;5137138;27;1844;-47
2022/05/19 00:37:51;;;;;;;;;;;;;;;8.40;68.83;96227.75;5136971;27;1116;-47
2022/05/19 00:40:19;;;;;;;;;;;;;;;8.14;68.47;96241.31;5136788;27;1028;-47
2022/05/19 00:42:45;;;;;;;;;;;;;;;7.86;69.19;96233.75;5137077;27;1024;-47
2022/05/19 00:45:12;;;;;;;;;;;;;;;7.72;70.34;96235.66;5136939;27;1035;-47
2022/05/19 00:47:45;;;;;;;;;;;;;;;7.97;71.19;96237.28;5137011;27;1031;-47
2022/05/19 00:50:34;;;;;;;;;;;;;;;8.42;69.82;96235.66;5136621;27;891;-47
2022/05/19 00:53:03;;;;;;;;;;;;;;;8.75;68.21;96230.31;5136636;27;1914;-47
2022/05/19 00:55:34;;;;;;;;;;;;;;;8.68;67.24;96231.75;5136413;27;972;-47
2022/05/19 00:58:15;;;;;;;;;;;;;;;8.44;67.11;96236.38;5136581;27;1028;-47
2022/05/19 01:00:41;;;;;;;;;;;;;;;8.20;67.01;96243.50;5136651;27;964;-47
2022/05/19 01:03:07;;;;;;;;;;;;;;;8.14;67.41;96238.66;5136845;27;1000;-47
2022/05/19 01:05:35;;;;;;;;;;;;;;;8.05;68.39;96249.19;5136137;27;1231;-47
2022/05/19 01:08:16;;;;;;;;;;;;;;;7.95;69.32;96239.22;5136428;27;1027;-47
2022/05/19 01:10:43;;;;;;;;;;;;;;;7.96;68.75;96243.56;5136287;27;1012;-47
2022/05/19 01:13:11;;;;;;;;;;;;;;;7.42;69.72;96241.50;5136110;27;1909;-47
2022/05/19 01:15:40;;;;;;;;;;;;;;;7.01;71.31;96246.25;5136071;27;1004;-47
2022/05/19 01:18:06;;;;;;;;;;;;;;;7.21;71.65;96242.13;5136192;27;1040;-47
2022/05/19 01:20:34;;;;;;;;;;;;;;;7.46;71.26;96250.09;5136165;27;1052;-47
2022/05/19 01:23:27;;;;;;;;;;;;;;;7.36;71.32;96250.78;5136354;27;1027;-47
2022/05/19 01:26:11;;;;;;;;;;;;;;;7.36;71.32;96244.59;5104637;27;1226;-47
2022/05/19 01:28:38;;;;;;;;;;;;;;;7.59;71.64;96234.91;5135803;27;1020;-47
2022/05/19 01:31:04;;;;;;;;;;;;;;;7.61;70.50;96248.94;5135859;27;1078;-47
2022/05/19 01:33:30;;;;;;;;;;;;;;;7.33;69.40;96243.03;5135746;27;2000;-47
2022/05/19 01:35:56;;;;;;;;;;;;;;;7.35;69.90;96242.91;5134790;27;1015;-47
2022/05/19 01:38:30;;;;;;;;;;;;;;;7.34;70.44;96258.03;5136117;27;949;-47
2022/05/19 01:41:12;;;;;;;;;;;;;;;7.15;70.61;96242.59;5135675;27;1055;-47
2022/05/19 01:43:57;;;;;;;;;;;;;;;7.00;70.60;96249.00;5135641;27;1078;-47
2022/05/19 01:46:26;;;;;;;;;;;;;;;7.13;71.13;96249.84;5135391;27;1875;-47
2022/05/19 01:48:55;;;;;;;;;;;;;;;7.41;71.41;96243.28;5135678;27;1103;-47
2022/05/19 01:51:21;;;;;;;;;;;;;;;7.47;71.23;96244.66;5135385;27;1023;-47
2022/05/19 01:54:13;;;;;;;;;;;;;;;7.39;69.64;96249.69;5135725;27;1992;-47
2022/05/19 01:56:45;;;;;;;;;;;;;;;7.00;70.33;96257.00;5103825;27;1344;-47
2022/05/19 01:59:11;;;;;;;;;;;;;;;6.79;72.22;96262.94;5135382;27;1036;-47
2022/05/19 02:01:39;;;;;;;;;;;;;;;6.90;71.42;96263.94;5135068;27;1020;-47
2022/05/19 02:04:05;;;;;;;;;;;;;;;6.66;72.35;96275.41;5135589;27;1056;-47
2022/05/19 02:06:40;;;;;;;;;;;;;;;6.81;72.63;96274.31;5116434;27;1216;-47
2022/05/19 02:09:08;;;;;;;;;;;;;;;6.71;71.67;96283.03;5115103;28;1069;-47
2022/05/19 02:11:38;;;;;;;;;;;;;;;6.57;72.10;96276.06;5114276;28;1032;-47
2022/05/19 02:14:08;;;;;;;;;;;;;;;6.67;72.37;96289.53;5114322;28;1967;-47
2022/05/19 02:16:35;;;;;;;;;;;;;;;6.86;72.54;96294.38;5114239;28;1870;-47
2022/05/19 02:19:01;;;;;;;;;;;;;;;6.96;72.46;96282.97;5114746;28;1027;-47
2022/05/19 02:21:27;;;;;;;;;;;;;;;6.94;71.29;96295.50;5114473;28;1039;-47
2022/05/19 02:24:00;;;;;;;;;;;;;;;6.78;71.89;96294.94;5114198;28;1082;-47
2022/05/19 02:26:30;;;;;;;;;;;;;;;6.81;72.41;96292.03;5114291;28;1040;-47
2022/05/19 02:28:58;;;;;;;;;;;;;;;6.79;71.52;96300.16;5114350;28;1075;-47
2022/05/19 02:31:25;;;;;;;;;;;;;;;6.28;71.94;96300.22;5113971;28;995;-47
2022/05/19 02:33:51;;;;;;;;;;;;;;;6.41;72.39;96290.44;5114317;28;1974;-47
2022/05/19 02:36:17;;;;;;;;;;;;;;;6.60;72.41;96297.06;5114415;28;1110;-47
2022/05/19 02:38:43;;;;;;;;;;;;;;;6.16;72.41;96309.00;5114223;28;959;-47
2022/05/19 02:41:09;;;;;;;;;;;;;;;5.93;73.23;96308.75;5114115;28;1035;-47
2022/05/19 02:43:35;;;;;;;;;;;;;;;6.10;73.37;96312.94;5113962;28;1047;-47
2022/05/19 02:46:01;;;;;;;;;;;;;;;6.25;73.22;96316.34;5113847;28;1027;-47
2022/05/19 02:48:28;;;;;;;;;;;;;;;6.37;72.86;96314.63;5113751;28;973;-47
2022/05/19 02:50:54;;;;;;;;;;;;;;;6.51;71.79;96316.34;5113940;28;1089;-47
2022/05/19 02:53:20;;;;;;;;;;;;;;;6.51;72.46;96309.22;5114145;28;1913;-47
2022/05/19 02:55:46;;;;;;;;;;;;;;;6.53;72.54;96311.78;5113607;28;1098;-47
2022/05/19 02:58:14;;;;;;;;;;;;;;;6.36;71.92;96310.31;5113763;28;1091;-47
2022/05/19 03:00:41;;;;;;;;;;;;;;;6.08;71.37;96311.34;5114063;27;964;-47
2022/05/19 03:03:07;;;;;;;;;;;;;;;5.89;72.65;96314.38;5113634;28;1036;-47
2022/05/19 03:05:34;;;;;;;;;;;;;;;6.05;72.84;96312.38;5124295;27;1188;-47
2022/05/19 03:08:00;;;;;;;;;;;;;;;5.97;72.44;96315.56;5134447;27;1007;-47
2022/05/19 03:10:26;;;;;;;;;;;;;;;6.01;73.12;96319.75;5132873;28;1032;-47
2022/05/19 03:12:56;;;;;;;;;;;;;;;5.99;73.25;96315.47;5134166;27;2392;-48
2022/05/19 03:15:22;;;;;;;;;;;;;;;6.10;72.92;96306.78;5134246;27;1086;-47
2022/05/19 03:17:48;;;;;;;;;;;;;;;6.05;72.34;96309.75;5134331;27;1018;-47
2022/05/19 03:20:15;;;;;;;;;;;;;;;6.03;73.29;96317.84;5134323;28;1040;-47
2022/05/19 03:22:41;;;;;;;;;;;;;;;6.12;72.55;96312.84;5134088;27;1072;-47
2022/05/19 03:25:09;;;;;;;;;;;;;;;5.83;72.23;96310.34;5133855;28;1184;-47
2022/05/19 03:27:36;;;;;;;;;;;;;;;5.68;72.98;96320.16;5133800;27;1027;-47
2022/05/19 03:30:04;;;;;;;;;;;;;;;5.86;73.99;96318.06;5134422;27;969;-47
2022/05/19 03:32:30;;;;;;;;;;;;;;;5.79;72.93;96317.66;5133981;27;1906;-47
2022/05/19 03:34:56;;;;;;;;;;;;;;;5.64;73.54;96322.19;5133002;28;1138;-47
2022/05/19 03:37:22;;;;;;;;;;;;;;;5.72;74.02;96319.00;5133924;27;960;-47
2022/05/19 03:39:48;;;;;;;;;;;;;;;5.78;73.42;96323.06;5134254;27;967;-46
2022/05/19 03:42:14;;;;;;;;;;;;;;;6.01;73.29;96333.03;5133971;28;952;-47
2022/05/19 03:44:41;;;;;;;;;;;;;;;6.43;73.16;96332.81;5134130;27;1011;-47
2022/05/19 03:47:07;;;;;;;;;;;;;;;6.82;73.12;96334.47;5133995;27;968;-47
2022/05/19 03:49:33;;;;;;;;;;;;;;;6.86;70.10;96331.59;5133855;28;1028;-47
2022/05/19 03:52:00;;;;;;;;;;;;;;;6.74;70.71;96342.16;5133832;28;1906;-47
2022/05/19 03:54:26;;;;;;;;;;;;;;;7.07;70.75;96346.00;5133889;27;1048;-47
2022/05/19 03:56:52;;;;;;;;;;;;;;;7.28;70.35;96348.94;5133787;28;1020;-47
2022/05/19 03:59:19;;;;;;;;;;;;;;;7.15;70.40;96354.31;5135298;27;1028;-47
2022/05/19 04:01:45;;;;;;;;;;;;;;;7.24;70.58;96353.63;5137792;27;1031;-47
2022/05/19 04:04:11;;;;;;;;;;;;;;;7.40;70.77;96357.84;5137907;27;961;-47
2022/05/19 04:06:37;;;;;;;;;;;;;;;7.79;70.23;96359.34;5118246;27;1164;-47
2022/05/19 04:09:04;;;;;;;;;;;;;;;7.78;70.40;96364.81;5116839;28;1878;-47
2022/05/19 04:11:31;;;;;;;;;;;;;;;8.02;69.52;96373.63;5116775;28;1016;-47
2022/05/19 04:13:58;;;;;;;;;;;;;;;8.24;69.57;96372.00;5116699;28;1910;-47
2022/05/19 04:16:24;;;;;;;;;;;;;;;8.37;68.92;96372.75;5116805;28;1036;-47
2022/05/19 04:18:50;;;;;;;;;;;;;;;8.46;68.35;96371.25;5116668;28;1047;-47
2022/05/19 04:21:16;;;;;;;;;;;;;;;8.60;68.83;96375.50;5117062;28;944;-47
2022/05/19 04:23:42;;;;;;;;;;;;;;;8.74;68.52;96374.41;5116551;28;1044;-47
2022/05/19 04:26:08;;;;;;;;;;;;;;;8.80;68.67;96371.25;5115344;28;1024;-47
2022/05/19 04:28:35;;;;;;;;;;;;;;;9.06;66.30;96376.38;5116706;28;981;-47
2022/05/19 04:31:01;;;;;;;;;;;;;;;9.28;64.86;96376.38;5116675;28;1310;-47
2022/05/19 04:33:27;;;;;;;;;;;;;;;9.43;63.44;96378.75;5116555;28;1996;-47
2022/05/19 04:35:54;;;;;;;;;;;;;;;9.61;63.01;96377.25;5116643;28;1034;-47
2022/05/19 04:38:20;;;;;;;;;;;;;;;9.76;62.61;96378.69;5116380;28;937;-47
2022/05/19 04:40:48;;;;;;;;;;;;;;;9.99;62.86;96385.78;5116130;28;1226;-47
2022/05/19 04:43:22;;;;;;;;;;;;;;;10.26;61.45;96387.97;5116244;28;972;-47
2022/05/19 04:45:49;;;;;;;;;;;;;;;10.44;61.22;96389.13;5116681;28;960;-47
2022/05/19 04:48:16;;;;;;;;;;;;;;;10.69;61.48;96389.72;5116282;28;1040;-47
2022/05/19 04:50:42;;;;;;;;;;;;;;;10.87;60.35;96393.47;5116280;28;993;-47
2022/05/19 04:53:08;;;;;;;;;;;;;;;10.97;60.74;96388.19;5116035;28;1998;-47
2022/05/19 04:55:35;;;;;;;;;;;;;;;11.07;59.69;96381.03;5115989;28;968;-47
2022/05/19 04:58:01;;;;;;;;;;;;;;;11.37;59.24;96384.69;5116177;28;1055;-47
2022/05/19 05:00:27;;;;;;;;;;;;;;;11.70;56.17;96388.88;5116243;28;951;-47
2022/05/19 05:02:53;;;;;;;;;;;;;;;12.51;56.05;96393.16;5116189;28;1052;-47
2022/05/19 05:05:19;;;;;;;;;;;;;;;13.40;53.31;96392.81;5124490;27;1144;-47
2022/05/19 05:07:46;;;;;;;;;;;;;;;14.22;51.33;96399.09;5136255;27;1945;-47
2022/05/19 05:10:12;;;;;;;;;;;;;;;14.88;49.79;96405.09;5136085;27;1190;-47
2022/05/19 05:12:38;;;;;;;;;;;;;;;15.35;49.12;96402.00;5136484;27;1914;-47
2022/05/19 05:15:04;;;;;;;;;;;;;;;15.45;47.17;96401.06;5136106;27;1099;-47
2022/05/19 05:17:31;;;;;;;;;;;;;;;15.85;47.54;96402.25;5136217;27;1011;-47
2022/05/19 05:19:57;;;;;;;;;;;;;;;16.42;45.47;96399.69;5136160;27;1024;-47
2022/05/19 05:22:23;;;;;;;;;;;;;;;16.34;45.15;96397.00;5136354;27;1047;-48
2022/05/19 05:24:49;;;;;;;;;;;;;;;16.69;44.65;96397.69;5136151;27;1047;-47
2022/05/19 05:27:15;;;;;;;;;;;;;;;17.05;43.51;96405.44;5136393;27;1032;-48
2022/05/19 05:29:41;;;;;;;;;;;;;;;17.60;43.42;96409.22;5136135;27;971;-48
2022/05/19 05:32:07;;;;;;;;;;;;;;;18.22;41.38;96409.28;5136292;27;1894;-48
2022/05/19 05:34:34;;;;;;;;;;;;;;;18.49;41.68;96416.06;5135792;27;1032;-47
2022/05/19 05:37:00;;;;;;;;;;;;;;;18.95;41.08;96414.38;5136182;27;963;-47
2022/05/19 05:39:26;;;;;;;;;;;;;;;19.23;40.22;96428.19;5135426;27;1078;-48
2022/05/19 05:41:52;;;;;;;;;;;;;;;19.05;40.29;96417.69;5136019;27;949;-47
2022/05/19 05:44:18;;;;;;;;;;;;;;;18.72;41.72;96420.63;5135882;27;975;-48
2022/05/19 05:46:45;;;;;;;;;;;;;;;18.47;42.05;96418.09;5135810;27;1139;-48
2022/05/19 05:49:11;;;;;;;;;;;;;;;18.39;43.14;96415.44;5135750;27;1032;-48
2022/05/19 05:51:37;;;;;;;;;;;;;;;17.62;44.30;96412.59;5135468;27;1040;-48
2022/05/19 05:54:03;;;;;;;;;;;;;;;16.71;46.19;96415.41;5134916;27;1902;-48
2022/05/19 05:56:29;;;;;;;;;;;;;;;15.52;47.44;96415.59;5135454;27;1114;-47
2022/05/19 05:58:55;;;;;;;;;;;;;;;14.94;50.71;96422.47;5135254;27;909;-47
2022/05/19 06:01:22;;;;;;;;;;;;;;;14.34;51.58;96415.88;5135762;27;990;-47
2022/05/19 06:03:48;;;;;;;;;;;;;;;14.08;52.81;96412.25;5135474;27;1015;-47
2022/05/19 06:06:14;;;;;;;;;;;;;;;14.36;53.12;96419.25;5118982;27;1164;-47
2022/05/19 06:08:41;;;;;;;;;;;;;;;14.58;52.36;96417.13;5114574;28;957;-47
2022/05/19 06:11:08;;;;;;;;;;;;;;;14.65;52.18;96415.50;5114652;28;1079;-47
2022/05/19 06:13:34;;;;;;;;;;;;;;;14.41;52.42;96416.09;5114150;28;1909;-47
2022/05/19 06:16:00;;;;;;;;;;;;;;;14.58;51.99;96419.81;5114538;28;1020;-47
2022/05/19 06:18:27;;;;;;;;;;;;;;;14.67;53.50;96420.75;5114538;28;1056;-47
2022/05/19 06:20:54;;;;;;;;;;;;;;;14.67;51.06;96423.44;5114266;28;1019;-47
2022/05/19 06:23:20;;;;;;;;;;;;;;;14.62;50.98;96431.97;5114056;28;1060;-47
2022/05/19 06:25:46;;;;;;;;;;;;;;;15.02;52.85;96434.16;5114240;28;988;-47
2022/05/19 06:28:13;;;;;;;;;;;;;;;15.57;50.59;96437.50;5114594;28;1038;-47
2022/05/19 06:30:39;;;;;;;;;;;;;;;15.61;47.15;96439.72;5114177;28;1005;-47
2022/05/19 06:33:05;;;;;;;;;;;;;;;15.49;49.24;96435.59;5114302;28;1985;-47
2022/05/19 06:35:32;;;;;;;;;;;;;;;15.63;49.09;96431.44;5114262;28;988;-47
2022/05/19 06:37:59;;;;;;;;;;;;;;;15.76;48.49;96431.91;5113956;28;965;-47
2022/05/19 06:40:25;;;;;;;;;;;;;;;15.78;46.17;96424.50;5114054;28;1032;-47
2022/05/19 06:42:52;;;;;;;;;;;;;;;16.00;48.19;96427.59;5114168;28;1020;-48
2022/05/19 06:45:19;;;;;;;;;;;;;;;16.06;47.48;96415.31;5114129;28;1068;-47
2022/05/19 06:47:46;;;;;;;;;;;;;;;16.49;46.49;96424.16;5114204;28;1015;-48
2022/05/19 06:50:13;;;;;;;;;;;;;;;16.53;46.38;96418.25;5113919;28;1027;-48
2022/05/19 06:52:43;;;;;;;;;;;;;;;16.65;47.00;96421.47;5113762;28;1906;-47
2022/05/19 06:55:10;;;;;;;;;;;;;;;17.04;47.15;96425.41;5113692;28;977;-48
2022/05/19 06:57:36;;;;;;;;;;;;;;;17.20;45.07;96421.81;5113983;28;988;-47
2022/05/19 07:00:03;;;;;;;;;;;;;;;17.25;45.69;96420.28;5114052;28;979;-47
2022/05/19 07:02:29;;;;;;;;;;;;;;;17.20;45.99;96414.53;5114070;28;1118;-47
2022/05/19 07:04:55;;;;;;;;;;;;;;;17.60;46.09;96415.47;5118931;27;1117;-47
2022/05/19 07:07:21;;;;;;;;;;;;;;;17.33;43.74;96419.44;5134377;27;1036;-47
2022/05/19 07:09:47;;;;;;;;;;;;;;;17.40;46.88;96419.59;5133883;27;1019;-48
2022/05/19 07:12:20;;;;;;;;;;;;;;;17.66;44.74;96425.59;5134376;28;1905;-48
2022/05/19 07:14:46;;;;;;;;;;;;;;;17.83;45.65;96417.41;5133927;27;1272;-47
2022/05/19 07:17:13;;;;;;;;;;;;;;;18.02;44.11;96418.88;5134259;27;1012;-47
2022/05/19 07:22:24;;;;;;;;;;;;;;;18.28;42.90;96423.97;5134382;28;1012;-47
2022/05/19 07:24:51;;;;;;;;;;;;;;;18.57;45.04;96427.84;5132689;28;957;-48
2022/05/19 07:27:17;;;;;;;;;;;;;;;18.60;43.68;96427.50;5134481;27;1067;-47
2022/05/19 07:29:43;;;;;;;;;;;;;;;18.51;42.11;96419.41;5134238;27;1062;-48
2022/05/19 07:32:09;;;;;;;;;;;;;;;18.69;43.36;96424.56;5134513;27;2000;-47
2022/05/19 07:34:37;;;;;;;;;;;;;;;18.92;43.58;96431.88;5135708;27;965;-48
2022/05/19 07:37:03;;;;;;;;;;;;;;;18.98;40.68;96428.41;5138375;27;1019;-48
2022/05/19 07:39:29;;;;;;;;;;;;;;;19.23;42.92;96428.19;5136981;27;957;-48
2022/05/19 07:41:57;;;;;;;;;;;;;;;19.19;41.36;96430.44;5138127;27;968;-48
2022/05/19 07:44:24;;;;;;;;;;;;;;;19.45;38.00;96419.16;5138297;27;1047;-47
2022/05/19 07:46:51;;;;;;;;;;;;;;;19.69;36.92;96420.78;5138325;27;1023;-47
2022/05/19 07:49:17;;;;;;;;;;;;;;;19.68;37.77;96419.06;5138327;27;1067;-48
2022/05/19 07:51:44;;;;;;;;;;;;;;;19.85;35.66;96416.22;5137681;27;1012;-47
2022/05/19 07:54:12;;;;;;;;;;;;;;;20.06;38.08;96421.69;5137601;27;1906;-47
2022/05/19 07:56:39;;;;;;;;;;;;;;;20.22;37.07;96415.22;5137602;27;1041;-47
2022/05/19 07:59:05;;;;;;;;;;;;;;;20.22;36.42;96414.34;5137782;27;1051;-47
2022/05/19 08:01:32;;;;;;;;;;;;;;;20.15;36.10;96416.19;5137494;27;944;-48
2022/05/19 08:03:58;;;;;;;;;;;;;;;20.33;36.58;96408.44;5138050;27;1028;-47
2022/05/19 08:06:24;;;;;;;;;;;;;;;20.44;34.10;96407.94;5119914;27;1179;-47
2022/05/19 08:08:51;;;;;;;;;;;;;;;20.41;34.06;96412.91;5117064;28;992;-48
2022/05/19 08:11:17;;;;;;;;;;;;;;;20.17;33.10;96406.78;5116763;28;1032;-48
2022/05/19 08:16:27;;;;;;;;;;;;;;;20.70;36.86;96403.84;5116677;28;1113;-47
2022/05/19 08:18:53;;;;;;;;;;;;;;;20.83;35.01;96403.13;5116867;28;1044;-47
2022/05/19 08:21:20;;;;;;;;;;;;;;;20.86;33.06;96405.44;5116813;28;956;-48
2022/05/19 08:23:47;;;;;;;;;;;;;;;20.83;32.42;96403.97;5116432;28;1083;-48
2022/05/19 08:26:14;;;;;;;;;;;;;;;20.94;33.52;96409.91;5116569;28;1072;-48
2022/05/19 08:28:40;;;;;;;;;;;;;;;21.12;33.79;96404.84;5116825;28;1015;-48
2022/05/19 08:31:08;;;;;;;;;;;;;;;21.29;34.60;96407.28;5116394;28;1025;-48
2022/05/19 08:33:35;;;;;;;;;;;;;;;21.33;33.99;96411.28;5116435;28;1910;-48
2022/05/19 08:36:02;;;;;;;;;;;;;;;21.43;33.56;96411.78;5116329;28;1087;-47
2022/05/19 08:38:28;;;;;;;;;;;;;;;21.36;32.96;96409.03;5116277;28;1012;-48
2022/05/19 08:41:17;;;;;;;;;;;;;;;21.31;31.13;96416.91;5116310;28;952;-48
2022/05/19 08:43:59;;;;;;;;;;;;;;;20.70;29.73;96409.28;5113223;28;1698;-47
2022/05/19 08:46:30;;;;;;;;;;;;;;;20.66;34.48;96408.00;5115789;28;1035;-48
2022/05/19 08:48:59;;;;;;;;;;;;;;;21.12;33.43;96404.00;5116377;28;1079;-48
2022/05/19 08:51:29;;;;;;;;;;;;;;;21.20;34.33;96399.25;5116128;28;1019;-48
2022/05/19 08:53:57;;;;;;;;;;;;;;;21.23;33.56;96398.03;5115935;28;1913;-48
2022/05/19 08:56:25;;;;;;;;;;;;;;;21.24;34.12;96400.53;5115918;28;1174;-47
2022/05/19 08:59:02;;;;;;;;;;;;;;;21.45;32.78;96402.38;5116539;28;1048;-48
2022/05/19 09:01:37;;;;;;;;;;;;;;;21.61;32.81;96405.88;5115882;28;1004;-47
2022/05/19 09:04:20;;;;;;;;;;;;;;;21.60;31.61;96404.16;5116037;28;1020;-48
2022/05/19 09:09:52;;;;;;;;;;;;;;;21.34;32.45;96399.34;5116101;28;1051;-48
2022/05/19 09:12:20;;;;;;;;;;;;;;;21.52;31.90;96396.19;5115621;28;1914;-48
2022/05/19 09:14:46;;;;;;;;;;;;;;;21.49;31.13;96396.56;5115517;28;1360;-48
2022/05/19 09:17:14;;;;;;;;;;;;;;;21.09;32.75;96390.81;5115913;28;929;-48
2022/05/19 09:19:49;;;;;;;;;;;;;;;21.12;31.07;96390.41;5115603;28;1095;-47
2022/05/19 09:22:16;;;;;;;;;;;;;;;21.36;33.51;96380.94;5115494;28;1036;-48
2022/05/19 09:24:45;;;;;;;;;;;;;;;21.44;32.94;96378.97;5115669;28;1058;-48
2022/05/19 09:27:12;;;;;;;;;;;;;;;21.45;31.39;96379.78;5115325;28;1031;-47
2022/05/19 09:29:49;;;;;;;;;;;;;;;21.61;32.86;96371.31;5115728;28;1003;-48
2022/05/19 09:32:15;;;;;;;;;;;;;;;21.64;32.16;96370.94;5115600;28;1913;-48
2022/05/19 09:34:44;;;;;;;;;;;;;;;21.24;29.96;96367.06;5115325;28;1036;-49
2022/05/19 09:37:10;;;;;;;;;;;;;;;21.24;31.24;96367.91;5115237;28;1023;-48
2022/05/19 09:39:45;;;;;;;;;;;;;;;21.52;28.98;96361.63;5115232;28;1082;-48
2022/05/19 09:42:14;;;;;;;;;;;;;;;21.50;31.37;96360.16;5115384;27;949;-48
2022/05/19 09:44:48;;;;;;;;;;;;;;;21.63;29.80;96357.50;5115321;28;972;-48
2022/05/19 09:47:20;;;;;;;;;;;;;;;21.48;29.83;96346.75;5115322;28;1060;-48
2022/05/19 09:49:53;;;;;;;;;;;;;;;21.36;30.46;96351.88;5114926;28;929;-48
2022/05/19 09:52:23;;;;;;;;;;;;;;;21.60;31.88;96339.69;5114693;28;1910;-47
2022/05/19 09:54:52;;;;;;;;;;;;;;;21.81;31.67;96340.63;5115010;28;1026;-48
2022/05/19 09:57:23;;;;;;;;;;;;;;;21.73;32.07;96340.81;5114307;27;1040;-47
2022/05/19 09:59:51;;;;;;;;;;;;;;;21.84;31.82;96329.34;5115212;28;1101;-48
2022/05/19 10:02:23;;;;;;;;;;;;;;;22.06;33.03;96330.03;5114971;28;1047;-48
2022/05/19 10:04:53;;;;;;;;;;;;;;;21.94;31.44;96335.25;5118831;27;1169;-48
2022/05/19 10:07:24;;;;;;;;;;;;;;;21.86;31.14;96326.44;5135392;27;1032;-48
2022/05/19 10:09:51;;;;;;;;;;;;;;;21.92;30.50;96328.31;5135450;27;1045;-48
2022/05/19 10:12:22;;;;;;;;;;;;;;;21.75;29.43;96331.38;5135013;27;1957;-48
2022/05/19 10:15:03;;;;;;;;;;;;;;;21.60;31.54;96326.09;5135118;27;1253;-48
2022/05/19 10:17:50;;;;;;;;;;;;;;;21.59;29.66;96327.13;5135127;27;1037;-47
2022/05/19 10:20:21;;;;;;;;;;;;;;;21.60;31.54;96325.25;5135370;27;973;-47
2022/05/19 10:22:54;;;;;;;;;;;;;;;21.70;30.17;96322.97;5134856;27;1052;-48
2022/05/19 10:25:31;;;;;;;;;;;;;;;21.68;29.49;96321.50;5134797;27;1960;-47
2022/05/19 10:31:03;;;;;;;;;;;;;;;21.97;30.90;96306.78;5135106;27;980;-48
2022/05/19 10:33:39;;;;;;;;;;;;;;;21.81;29.42;96307.97;5134559;27;1902;-47
2022/05/19 10:36:33;;;;;;;;;;;;;;;21.78;30.66;96300.22;5134644;27;972;-48
2022/05/19 10:39:17;;;;;;;;;;;;;;;21.72;29.15;96298.28;5103960;27;1178;-47
2022/05/19 10:42:02;;;;;;;;;;;;;;;21.80;29.45;96285.34;5134776;27;1093;-48
2022/05/19 10:44:46;;;;;;;;;;;;;;;21.80;30.69;96285.34;5134645;27;1017;-47
2022/05/19 10:47:12;;;;;;;;;;;;;;;21.89;29.96;96288.72;5134871;27;967;-48
2022/05/19 10:49:53;;;;;;;;;;;;;;;21.90;28.78;96279.50;5134672;27;1010;-47
2022/05/19 10:52:31;;;;;;;;;;;;;;;21.58;28.84;96281.91;5134458;27;1913;-47
2022/05/19 10:55:15;;;;;;;;;;;;;;;21.23;29.58;96275.66;5134108;27;898;-47
2022/05/19 10:57:46;;;;;;;;;;;;;;;21.44;33.08;96274.75;5134650;27;956;-47
2022/05/19 11:00:21;;;;;;;;;;;;;;;21.54;30.87;96277.91;5134349;27;1027;-48
2022/05/19 11:03:20;;;;;;;;;;;;;;;21.71;30.67;96274.84;5134560;27;980;-47
2022/05/19 11:06:06;;;;;;;;;;;;;;;21.79;31.12;96271.94;5076954;28;1380;-48
2022/05/19 11:08:39;;;;;;;;;;;;;;;21.81;30.78;96272.56;5109242;28;1238;-48
2022/05/19 11:11:24;;;;;;;;;;;;;;;21.85;31.95;96268.41;5114053;28;1029;-48
2022/05/19 11:13:55;;;;;;;;;;;;;;;21.93;29.44;96265.50;5113108;28;1988;-48
2022/05/19 11:16:44;;;;;;;;;;;;;;;22.09;32.04;96271.63;5113756;28;1082;-48
2022/05/19 11:46:29;;;;;;;;;;;;;;;22.08;29.09;96223.63;5113488;28;703;-47
2022/05/19 11:57:38;;;;;;;;;;;;;;;22.12;27.31;96223.03;5113745;28;963;-47
2022/05/19 12:00:05;;;;;;;;;;;;;;;22.19;28.68;96229.28;5113402;28;966;-48
2022/05/19 12:02:36;;;;;;;;;;;;;;;22.29;28.12;96218.03;5113208;28;2076;-48
2022/05/19 12:05:10;;;;;;;;;;;;;;;22.08;27.12;96220.91;5119344;28;1144;-47
2022/05/19 12:07:42;;;;;;;;;;;;;;;21.91;27.19;96215.00;5134081;27;960;-48
2022/05/19 12:10:10;;;;;;;;;;;;;;;21.92;27.44;96212.09;5133619;27;1063;-47
2022/05/19 12:12:38;;;;;;;;;;;;;;;21.96;27.65;96212.50;5133815;27;1921;-48
2022/05/19 12:15:17;;;;;;;;;;;;;;;22.05;28.09;96210.44;5133390;27;1234;-48
2022/05/19 12:17:46;;;;;;;;;;;;;;;21.99;27.27;96207.50;5133767;27;984;-47
2022/05/19 12:20:30;;;;;;;;;;;;;;;21.99;27.21;96201.22;5134316;27;1102;-48
2022/05/19 12:23:15;;;;;;;;;;;;;;;22.13;26.86;96207.50;5137453;27;1055;-48
2022/05/19 12:25:43;;;;;;;;;;;;;;;22.13;26.71;96200.16;5137140;27;937;-48
2022/05/19 12:28:12;;;;;;;;;;;;;;;22.12;26.16;96203.09;5137641;27;1035;-48
2022/05/19 12:33:25;;;;;;;;;;;;;;;22.16;28.19;96197.03;5137375;27;1981;-48
2022/05/19 12:35:54;;;;;;;;;;;;;;;22.26;27.40;96191.22;5137154;27;1040;-47
2022/05/19 12:38:34;;;;;;;;;;;;;;;22.29;27.31;96196.25;5137356;27;980;-48
2022/05/19 12:41:01;;;;;;;;;;;;;;;22.42;26.65;96192.66;5137441;27;991;-48
2022/05/19 12:43:36;;;;;;;;;;;;;;;22.44;26.01;96195.19;5136943;27;1051;-47
2022/05/19 12:46:03;;;;;;;;;;;;;;;22.35;27.12;96183.69;5136842;27;1000;-48
2022/05/19 12:48:32;;;;;;;;;;;;;;;22.23;25.95;96180.69;5136789;27;1007;-48
2022/05/19 12:51:04;;;;;;;;;;;;;;;22.07;26.06;96178.38;5136696;27;948;-48
2022/05/19 12:53:52;;;;;;;;;;;;;;;22.09;25.47;96171.69;5136444;27;1913;-48
2022/05/19 12:56:37;;;;;;;;;;;;;;;22.10;27.35;96162.47;5136841;27;1041;-47
2022/05/19 12:59:04;;;;;;;;;;;;;;;22.29;27.56;96168.16;5136784;27;1020;-47
2022/05/19 13:01:45;;;;;;;;;;;;;;;22.18;25.87;96164.16;5136733;27;991;-47
2022/05/19 13:04:29;;;;;;;;;;;;;;;22.24;27.49;96149.69;5136621;27;1024;-48
2022/05/19 13:06:59;;;;;;;;;;;;;;;22.31;26.70;96149.69;5115792;28;1004;-48
2022/05/19 13:09:27;;;;;;;;;;;;;;;22.32;25.74;96149.50;5116273;28;968;-48
2022/05/19 13:11:54;;;;;;;;;;;;;;;22.23;26.93;96143.41;5115975;28;1052;-47
2022/05/19 13:14:27;;;;;;;;;;;;;;;22.23;27.34;96134.38;5115710;28;1992;-47
2022/05/19 13:16:54;;;;;;;;;;;;;;;22.16;26.06;96130.84;5114540;28;1040;-48
2022/05/19 13:19:22;;;;;;;;;;;;;;;22.14;25.43;96125.59;5115623;28;976;-48
2022/05/19 13:22:08;;;;;;;;;;;;;;;22.20;26.59;96127.47;5115547;28;1071;-48
2022/05/19 13:24:39;;;;;;;;;;;;;;;22.33;27.57;96120.34;5115347;28;1064;-48
2022/05/19 13:32:38;;;;;;;;;;;;;;;22.12;26.75;96113.22;5115448;28;1901;-48
2022/05/19 13:35:10;;;;;;;;;;;;;;;22.09;26.75;96110.94;5131121;27;1099;-48
2022/05/19 13:37:38;;;;;;;;;;;;;;;22.08;27.51;96106.53;5115153;27;1016;-48
2022/05/19 13:40:15;;;;;;;;;;;;;;;22.19;27.76;96103.16;5115576;28;1047;-48
2022/05/19 13:42:52;;;;;;;;;;;;;;;22.14;27.70;96098.38;5115390;28;963;-48
2022/05/19 13:45:20;;;;;;;;;;;;;;;22.06;27.85;96098.56;5114014;28;1985;-48
2022/05/19 13:47:47;;;;;;;;;;;;;;;22.06;27.96;96087.66;5113997;28;944;-48
2022/05/19 13:50:20;;;;;;;;;;;;;;;22.18;28.07;96096.06;5115074;28;1024;-48
2022/05/19 13:52:51;;;;;;;;;;;;;;;22.19;27.81;96087.66;5115306;28;1961;-48
2022/05/19 13:55:25;;;;;;;;;;;;;;;22.22;28.15;96089.13;5114957;28;1028;-48
2022/05/19 13:57:52;;;;;;;;;;;;;;;22.11;28.09;96082.44;5114981;28;964;-48
2022/05/19 14:00:18;;;;;;;;;;;;;;;22.05;27.79;96079.72;5115219;28;1032;-48
2022/05/19 14:02:45;;;;;;;;;;;;;;;22.02;28.10;96083.69;5114746;27;1028;-48
2022/05/19 14:05:22;;;;;;;;;;;;;;;21.92;26.62;96086.00;5121913;27;1149;-48
2022/05/19 14:07:50;;;;;;;;;;;;;;;21.93;27.42;96080.38;5135476;27;1004;-48
2022/05/19 14:10:18;;;;;;;;;;;;;;;21.95;26.97;96081.00;5135496;27;1027;-48